Time;durP1;ratioP1;P1;durP2;ratioP2;P2;SDS_P1;SDS_P2;PMS_P1;PMS_P2;Temp;Humidity;BMP_temperature;BMP_pressure;BME280_temperature;BME280_humidity;BME280_pressure;Samples;Min_cycle;Max_cycle;Signal;HPM_P1;HPM_P2
2022/01/17 00:00:36;;;;;;;7.65;1.80;;;5.60;99.90;;;;;;5094685;28;20488;-74
2022/01/17 00:03:03;;;;;;;5.50;1.75;;;5.60;99.90;;;;;;5085691;28;20037;-75
2022/01/17 00:05:30;;;;;;;6.70;1.95;;;5.70;99.90;;;;;;5082723;28;20040;-75
2022/01/17 00:07:56;;;;;;;4.93;1.30;;;5.60;99.90;;;;;;5080587;28;20047;-75
2022/01/17 00:10:21;;;;;;;11.35;1.80;;;5.60;99.90;;;;;;5088262;28;20040;-75
2022/01/17 00:12:50;;;;;;;5.38;1.58;;;5.60;99.90;;;;;;5085493;28;20040;-74
2022/01/17 00:15:27;;;;;;;8.10;1.90;;;5.60;99.90;;;;;;5085255;28;20051;-73
2022/01/17 00:18:20;;;;;;;8.43;2.58;;;5.60;99.90;;;;;;5091274;28;20052;-73
2022/01/17 00:20:40;;;;;;;15.80;3.38;;;5.60;99.90;;;;;;5089224;28;20069;-75
2022/01/17 00:23:06;;;;;;;12.55;2.35;;;5.60;99.90;;;;;;5080013;28;20542;-73
2022/01/17 00:25:32;;;;;;;8.48;1.50;;;5.60;99.90;;;;;;5080345;28;20890;-75
2022/01/17 00:27:57;;;;;;;7.07;1.55;;;5.60;99.90;;;;;;5077093;28;20048;-74
2022/01/17 00:30:23;;;;;;;7.68;1.48;;;5.50;99.90;;;;;;5078487;28;20048;-74
2022/01/17 00:32:49;;;;;;;11.75;1.95;;;5.50;99.90;;;;;;5084809;28;20046;-74
2022/01/17 00:35:15;;;;;;;13.02;1.95;;;5.50;99.90;;;;;;5086892;28;20108;-74
2022/01/17 00:37:41;;;;;;;8.30;1.80;;;5.50;99.90;;;;;;5077682;28;20044;-74
2022/01/17 00:40:08;;;;;;;11.15;2.22;;;5.50;99.90;;;;;;5098846;28;20552;-73
2022/01/17 00:42:34;;;;;;;11.27;2.10;;;5.40;99.90;;;;;;5090866;28;20044;-75
2022/01/17 00:45:04;;;;;;;10.30;1.50;;;5.40;99.90;;;;;;5077090;28;20119;-77
2022/01/17 00:47:30;;;;;;;11.07;1.95;;;5.40;99.90;;;;;;5094913;28;20048;-75
2022/01/17 00:49:55;;;;;;;9.60;2.00;;;5.40;99.90;;;;;;5075860;28;20082;-75
2022/01/17 00:52:21;;;;;;;8.40;1.60;;;5.40;99.90;;;;;;5079082;28;20055;-75
2022/01/17 00:54:47;;;;;;;10.50;2.40;;;5.40;99.90;;;;;;5095418;28;20040;-74
2022/01/17 00:57:12;;;;;;;10.52;2.05;;;5.30;99.90;;;;;;5099977;28;20105;-75
2022/01/17 00:59:38;;;;;;;6.47;1.92;;;5.30;99.90;;;;;;5089188;28;20220;-73
2022/01/17 01:02:04;;;;;;;12.30;1.90;;;5.30;99.90;;;;;;5077989;28;20052;-73
2022/01/17 01:04:29;;;;;;;10.20;1.92;;;5.40;99.90;;;;;;5087646;28;20067;-75
2022/01/17 01:06:55;;;;;;;5.63;1.63;;;5.40;99.90;;;;;;5077829;28;20067;-74
2022/01/17 01:09:21;;;;;;;9.38;2.92;;;5.40;99.90;;;;;;5078159;28;20535;-75
2022/01/17 01:11:47;;;;;;;5.75;1.70;;;5.40;99.90;;;;;;5097012;28;20086;-74
2022/01/17 01:14:13;;;;;;;10.23;1.83;;;5.30;99.90;;;;;;5081848;28;20090;-75
2022/01/17 01:16:38;;;;;;;12.07;2.65;;;5.30;99.90;;;;;;5082104;28;20056;-73
2022/01/17 01:19:19;;;;;;;11.88;2.08;;;5.30;99.90;;;;;;5081865;28;20097;-74
2022/01/17 01:29:46;;;;;;;8.05;1.77;;;5.40;99.90;;;;;;5079618;28;20092;-76
2022/01/17 01:32:13;;;;;;;8.30;1.90;;;5.40;99.90;;;;;;5084766;28;20084;-74
2022/01/17 01:34:44;;;;;;;8.93;2.00;;;5.30;99.90;;;;;;5081667;28;20076;-72
2022/01/17 01:37:11;;;;;;;8.73;1.60;;;5.30;99.90;;;;;;5088706;28;20054;-76
2022/01/17 01:39:37;;;;;;;13.85;2.85;;;5.30;99.90;;;;;;5101792;28;20044;-76
2022/01/17 01:42:04;;;;;;;10.63;2.13;;;5.30;99.90;;;;;;5096060;28;20072;-73
2022/01/17 01:44:31;;;;;;;12.40;2.47;;;5.30;99.90;;;;;;5097489;28;21026;-73
2022/01/17 01:46:57;;;;;;;8.10;1.92;;;5.50;99.90;;;;;;5079721;28;20130;-74
2022/01/17 01:49:24;;;;;;;8.70;1.77;;;5.20;99.90;;;;;;5081249;28;20048;-74
2022/01/17 01:51:50;;;;;;;11.45;2.40;;;5.20;99.90;;;;;;5092460;28;20083;-72
2022/01/17 01:54:18;;;;;;;12.63;2.10;;;5.20;99.90;;;;;;5098131;28;20036;-75
2022/01/17 01:56:46;;;;;;;11.60;2.03;;;5.30;99.90;;;;;;5089689;28;20447;-74
2022/01/17 01:59:14;;;;;;;9.63;1.95;;;5.30;99.90;;;;;;5095302;28;20567;-74
2022/01/17 02:01:40;;;;;;;9.75;1.73;;;5.20;99.90;;;;;;5082971;28;20373;-72
2022/01/17 02:04:06;;;;;;;11.68;2.03;;;5.20;99.90;;;;;;5080940;28;20047;-74
2022/01/17 02:06:32;;;;;;;11.88;1.73;;;5.10;99.90;;;;;;5080796;28;20066;-75
2022/01/17 02:09:00;;;;;;;5.50;1.73;;;5.10;99.90;;;;;;5078874;28;20045;-76
2022/01/17 02:11:26;;;;;;;10.20;2.13;;;5.10;99.90;;;;;;5079150;28;20058;-73
2022/01/17 02:13:52;;;;;;;14.98;2.42;;;5.20;99.90;;;;;;5088580;28;20076;-73
2022/01/17 02:16:21;;;;;;;11.75;2.10;;;5.20;99.90;;;;;;5100600;28;20040;-72
2022/01/17 02:18:48;;;;;;;6.70;1.98;;;5.10;99.90;;;;;;5090979;28;20052;-75
2022/01/17 02:23:42;;;;;;;8.88;1.70;;;5.10;99.90;;;;;;5086998;28;20078;-74
2022/01/17 02:26:09;;;;;;;10.02;2.72;;;5.10;99.90;;;;;;5079559;28;20054;-72
2022/01/17 02:28:36;;;;;;;9.55;1.92;;;5.00;99.90;;;;;;5097896;28;20055;-72
2022/01/17 02:31:05;;;;;;;8.90;1.63;;;5.00;99.90;;;;;;5087730;28;20078;-76
2022/01/17 02:33:31;;;;;;;12.50;2.25;;;5.00;99.90;;;;;;5115101;28;20044;-73
2022/01/17 02:35:57;;;;;;;16.38;3.47;;;5.00;99.90;;;;;;5081049;28;20403;-74
2022/01/17 02:38:23;;;;;;;8.38;2.10;;;4.90;99.90;;;;;;5079864;28;20048;-74
2022/01/17 02:40:50;;;;;;;10.50;2.10;;;4.90;99.90;;;;;;5080462;28;20048;-72
2022/01/17 02:43:17;;;;;;;7.88;1.90;;;4.90;99.90;;;;;;5080171;28;20103;-75
2022/01/17 02:48:29;;;;;;;10.60;2.03;;;4.80;99.90;;;;;;5080911;28;20048;-74
2022/01/17 02:50:56;;;;;;;9.90;2.58;;;4.80;99.90;;;;;;5091471;28;20047;-72
2022/01/17 02:53:23;;;;;;;8.43;2.20;;;4.80;99.90;;;;;;5092709;28;20080;-75
2022/01/17 02:55:54;;;;;;;10.50;2.05;;;4.70;99.90;;;;;;5106919;28;20115;-73
2022/01/17 02:58:22;;;;;;;10.43;2.20;;;4.70;99.90;;;;;;5104083;28;20078;-75
2022/01/17 03:00:49;;;;;;;8.77;2.45;;;4.70;99.90;;;;;;5080274;28;20102;-73
2022/01/17 03:03:17;;;;;;;11.07;2.25;;;4.70;99.90;;;;;;5078326;28;20075;-73
2022/01/17 03:05:43;;;;;;;6.43;1.70;;;4.70;99.90;;;;;;5082884;28;20509;-74
2022/01/17 03:08:09;;;;;;;7.03;2.22;;;4.60;99.90;;;;;;5079325;28;20046;-73
2022/01/17 03:10:43;;;;;;;9.88;2.47;;;4.80;99.90;;;;;;5096241;28;20151;-80
2022/01/17 03:13:09;;;;;;;8.65;2.00;;;4.70;99.90;;;;;;5079764;28;20052;-74
2022/01/17 03:15:36;;;;;;;3.88;1.45;;;4.60;99.90;;;;;;5077686;28;20041;-74
2022/01/17 03:18:03;;;;;;;10.15;2.00;;;4.60;99.90;;;;;;5079892;28;20080;-75
2022/01/17 03:20:29;;;;;;;13.00;2.63;;;4.60;99.90;;;;;;5095900;28;20068;-73
2022/01/17 03:22:55;;;;;;;5.78;1.90;;;4.60;99.90;;;;;;5087720;28;20100;-75
2022/01/17 03:25:21;;;;;;;13.45;2.05;;;4.60;99.90;;;;;;5078847;28;20067;-75
2022/01/17 03:27:47;;;;;;;23.13;3.67;;;4.50;99.90;;;;;;5079740;28;20048;-74
2022/01/17 03:30:13;;;;;;;7.40;2.35;;;4.50;99.90;;;;;;5079222;28;20098;-73
2022/01/17 03:32:39;;;;;;;11.68;2.15;;;4.50;99.90;;;;;;5092507;28;20056;-75
2022/01/17 03:35:05;;;;;;;10.32;1.83;;;4.50;99.90;;;;;;5083687;28;20048;-77
2022/01/17 03:37:31;;;;;;;16.65;2.55;;;4.50;99.90;;;;;;5083280;28;20056;-74
2022/01/17 03:39:57;;;;;;;10.45;2.20;;;4.80;99.90;;;;;;5094944;28;20112;-77
2022/01/17 03:42:24;;;;;;;18.40;2.20;;;4.50;99.90;;;;;;5060796;28;20076;-72
2022/01/17 03:44:50;;;;;;;9.63;1.50;;;4.60;99.90;;;;;;5081005;28;20055;-73
2022/01/17 03:47:17;;;;;;;11.85;2.10;;;4.60;99.90;;;;;;5097928;28;20082;-73
2022/01/17 03:49:42;;;;;;;13.60;3.20;;;4.60;99.90;;;;;;5080612;28;20040;-75
2022/01/17 03:52:08;;;;;;;14.60;2.08;;;4.60;99.90;;;;;;5083422;28;20169;-73
2022/01/17 03:54:35;;;;;;;13.45;2.05;;;4.90;99.90;;;;;;5095943;28;20040;-75
2022/01/17 03:57:01;;;;;;;10.57;2.75;;;4.70;99.90;;;;;;5092475;28;20064;-75
2022/01/17 03:59:27;;;;;;;11.68;1.90;;;4.70;99.90;;;;;;5079171;28;20044;-72
2022/01/17 04:01:53;;;;;;;10.38;2.17;;;4.80;99.90;;;;;;5088344;28;20079;-73
2022/01/17 04:04:19;;;;;;;8.73;1.75;;;4.70;99.90;;;;;;5091200;28;20048;-75
2022/01/17 04:06:44;;;;;;;12.35;2.45;;;4.70;99.90;;;;;;5099077;28;20035;-75
2022/01/17 04:09:11;;;;;;;9.82;2.28;;;4.80;99.90;;;;;;5084580;28;20044;-76
2022/01/17 04:11:37;;;;;;;13.15;2.38;;;4.70;99.90;;;;;;5076461;28;20056;-75
2022/01/17 04:14:03;;;;;;;7.97;2.45;;;4.70;99.90;;;;;;5079000;28;20036;-73
2022/01/17 04:16:29;;;;;;;11.70;2.28;;;4.70;99.90;;;;;;5078396;28;20076;-75
2022/01/17 04:18:55;;;;;;;5.18;1.33;;;4.70;99.90;;;;;;5078732;28;20055;-75
2022/01/17 04:21:21;;;;;;;10.27;2.05;;;4.80;99.90;;;;;;5078600;28;20064;-73
2022/01/17 04:23:47;;;;;;;7.25;1.50;;;4.80;99.90;;;;;;5078620;28;20072;-76
2022/01/17 04:26:14;;;;;;;8.68;1.77;;;4.80;99.90;;;;;;5084110;28;20059;-75
2022/01/17 04:28:40;;;;;;;9.73;2.22;;;4.80;99.90;;;;;;5093753;28;20067;-77
2022/01/17 04:31:06;;;;;;;11.55;2.28;;;4.80;99.90;;;;;;5077586;28;20052;-73
2022/01/17 04:33:32;;;;;;;10.70;1.70;;;4.80;99.90;;;;;;5106171;28;20050;-75
2022/01/17 04:35:57;;;;;;;11.60;2.08;;;4.80;99.90;;;;;;5089093;28;20036;-75
2022/01/17 04:38:23;;;;;;;8.00;1.45;;;4.80;99.90;;;;;;5087745;28;20048;-71
2022/01/17 04:41:00;;;;;;;6.60;1.42;;;4.70;99.90;;;;;;5088863;28;20093;-75
2022/01/17 04:46:04;;;;;;;9.43;2.10;;;4.70;99.90;;;;;;5090007;28;20055;-73
2022/01/17 04:48:30;;;;;;;8.35;2.38;;;4.70;99.90;;;;;;5084524;28;20044;-75
2022/01/17 04:50:58;;;;;;;9.27;1.90;;;4.70;99.90;;;;;;5102317;28;20052;-73
2022/01/17 04:53:25;;;;;;;13.27;2.90;;;4.70;99.90;;;;;;5090983;28;20044;-75
2022/01/17 04:55:51;;;;;;;5.88;1.52;;;4.60;99.90;;;;;;5077191;28;20040;-75
2022/01/17 04:58:17;;;;;;;5.53;1.48;;;4.70;99.90;;;;;;5082004;28;20037;-72
2022/01/17 05:00:47;;;;;;;7.93;1.85;;;4.70;99.90;;;;;;5084749;28;20040;-76
2022/01/17 05:03:17;;;;;;;13.65;2.53;;;4.70;99.90;;;;;;5088160;28;20047;-73
2022/01/17 05:05:42;;;;;;;8.75;2.00;;;4.70;99.90;;;;;;5082507;28;20068;-73
2022/01/17 05:08:08;;;;;;;8.57;2.00;;;5.00;99.90;;;;;;5081608;28;20047;-76
2022/01/17 05:10:34;;;;;;;9.25;2.17;;;4.80;99.90;;;;;;5082376;28;20044;-73
2022/01/17 05:13:00;;;;;;;5.30;1.65;;;4.80;99.90;;;;;;5093342;28;20050;-75
2022/01/17 05:15:33;;;;;;;7.13;1.90;;;4.80;99.90;;;;;;5099907;28;20070;-72
2022/01/17 05:20:25;;;;;;;8.45;1.80;;;4.90;99.90;;;;;;5090514;28;20044;-72
2022/01/17 05:22:52;;;;;;;10.90;1.65;;;5.00;99.90;;;;;;5082418;28;20040;-72
2022/01/17 05:25:18;;;;;;;10.38;2.95;;;4.90;99.90;;;;;;5081473;28;20048;-74
2022/01/17 05:27:44;;;;;;;9.70;2.25;;;5.00;99.90;;;;;;5097292;28;20496;-79
2022/01/17 05:30:13;;;;;;;10.88;2.03;;;4.90;99.90;;;;;;5095919;28;20052;-73
2022/01/17 05:32:40;;;;;;;10.02;1.92;;;5.00;99.90;;;;;;5081287;28;20053;-75
2022/01/17 05:35:07;;;;;;;8.27;2.50;;;5.00;99.90;;;;;;5081857;28;20040;-73
2022/01/17 05:37:33;;;;;;;13.52;2.30;;;5.00;99.90;;;;;;5089515;28;20043;-78
2022/01/17 05:39:58;;;;;;;12.55;2.03;;;5.10;99.90;;;;;;5086122;28;20063;-73
2022/01/17 05:42:24;;;;;;;8.93;2.88;;;5.10;99.90;;;;;;5099663;28;20051;-73
2022/01/17 05:44:51;;;;;;;8.55;1.85;;;5.10;99.90;;;;;;5080161;28;20476;-74
2022/01/17 05:47:17;;;;;;;11.40;3.38;;;5.10;99.90;;;;;;5080017;28;20062;-76
2022/01/17 05:49:43;;;;;;;7.20;1.90;;;5.10;99.90;;;;;;5081541;28;20059;-74
2022/01/17 05:52:10;;;;;;;9.70;2.22;;;5.10;99.90;;;;;;5100212;28;20104;-71
2022/01/17 05:54:36;;;;;;;10.90;2.30;;;5.10;99.90;;;;;;5092740;28;20047;-76
2022/01/17 05:57:02;;;;;;;9.18;2.38;;;5.40;99.90;;;;;;5105511;28;20032;-75
2022/01/17 05:59:28;;;;;;;6.00;2.40;;;5.20;99.90;;;;;;5087440;28;20044;-77
2022/01/17 06:01:54;;;;;;;7.38;2.00;;;5.20;99.90;;;;;;5094258;28;20084;-74
2022/01/17 06:04:20;;;;;;;13.90;3.22;;;5.20;99.90;;;;;;5080931;28;20049;-74
2022/01/17 06:06:47;;;;;;;8.18;2.13;;;5.20;99.90;;;;;;5091833;28;20055;-74
2022/01/17 06:09:13;;;;;;;9.80;2.50;;;5.10;99.90;;;;;;5084902;28;20040;-71
2022/01/17 06:11:39;;;;;;;14.75;4.25;;;5.20;99.90;;;;;;5080084;28;20044;-75
2022/01/17 06:14:06;;;;;;;9.18;2.10;;;5.20;99.90;;;;;;5081097;28;20043;-74
2022/01/17 06:16:32;;;;;;;8.10;2.25;;;5.20;99.90;;;;;;5079275;28;20083;-72
2022/01/17 06:18:58;;;;;;;10.13;2.75;;;5.30;99.90;;;;;;5081101;28;20048;-75
2022/01/17 06:21:24;;;;;;;12.57;2.38;;;5.30;99.90;;;;;;5080912;28;20045;-72
2022/01/17 06:23:52;;;;;;;9.15;2.45;;;5.30;99.90;;;;;;5095033;28;20051;-76
2022/01/17 06:26:19;;;;;;;16.50;2.85;;;5.30;99.90;;;;;;5087504;28;20052;-73
2022/01/17 06:28:45;;;;;;;11.60;2.05;;;5.30;99.90;;;;;;5103470;28;20050;-76
2022/01/17 06:31:10;;;;;;;13.70;2.50;;;5.30;99.90;;;;;;5089425;28;20132;-72
2022/01/17 06:33:36;;;;;;;9.02;2.35;;;5.30;99.90;;;;;;5119027;28;20036;-74
2022/01/17 06:36:02;;;;;;;13.77;3.22;;;5.30;99.90;;;;;;5085526;28;20119;-72
2022/01/17 06:38:28;;;;;;;9.05;2.55;;;5.40;99.90;;;;;;5102540;28;20065;-70
2022/01/17 06:40:54;;;;;;;16.23;3.75;;;5.40;99.90;;;;;;5082093;28;20084;-75
2022/01/17 06:43:19;;;;;;;10.65;2.70;;;5.40;99.90;;;;;;5083136;28;20086;-72
2022/01/17 06:45:45;;;;;;;7.05;2.75;;;5.40;99.90;;;;;;5090458;28;20041;-73
2022/01/17 06:48:11;;;;;;;12.60;3.60;;;5.50;99.90;;;;;;5080623;28;20060;-74
2022/01/17 06:50:37;;;;;;;8.65;3.00;;;5.40;99.90;;;;;;5079813;28;20044;-72
2022/01/17 06:53:04;;;;;;;9.13;2.40;;;5.40;99.90;;;;;;5080724;28;20040;-75
2022/01/17 06:55:30;;;;;;;7.88;2.15;;;5.50;99.90;;;;;;5091233;28;20059;-76
2022/01/17 06:57:56;;;;;;;12.60;3.10;;;5.50;99.90;;;;;;5080230;28;20044;-74
2022/01/17 07:00:22;;;;;;;11.60;3.58;;;5.50;99.90;;;;;;5084226;28;20047;-71
2022/01/17 07:02:48;;;;;;;13.65;3.55;;;5.50;99.90;;;;;;5079236;28;20124;-71
2022/01/17 07:05:14;;;;;;;8.82;2.83;;;5.50;99.90;;;;;;5092629;28;20064;-74
2022/01/17 07:07:39;;;;;;;14.07;3.50;;;5.50;99.90;;;;;;5079172;28;20051;-71
2022/01/17 07:10:05;;;;;;;11.43;2.72;;;5.50;99.90;;;;;;5079320;28;20050;-72
2022/01/17 07:12:32;;;;;;;12.77;3.35;;;5.50;99.90;;;;;;5077597;28;20607;-76
2022/01/17 07:14:58;;;;;;;20.90;4.00;;;5.50;99.90;;;;;;5079687;28;20036;-75
2022/01/17 07:17:24;;;;;;;10.25;3.72;;;5.50;99.90;;;;;;5079976;28;20452;-75
2022/01/17 07:19:49;;;;;;;19.50;4.47;;;5.50;99.90;;;;;;5084807;28;20048;-77
2022/01/17 07:22:15;;;;;;;9.90;3.55;;;5.70;99.90;;;;;;5079936;28;20036;-74
2022/01/17 07:24:44;;;;;;;16.92;4.28;;;5.50;99.90;;;;;;5079093;28;20055;-75
2022/01/17 07:27:10;;;;;;;11.10;3.28;;;5.60;99.90;;;;;;5079355;28;20170;-73
2022/01/17 07:29:36;;;;;;;12.75;4.70;;;5.50;99.90;;;;;;5077876;28;20056;-72
2022/01/17 07:32:02;;;;;;;13.73;3.80;;;5.50;99.90;;;;;;5092593;28;20054;-75
2022/01/17 07:34:27;;;;;;;13.05;4.90;;;5.50;99.90;;;;;;5097331;28;20104;-75
2022/01/17 07:36:53;;;;;;;12.25;3.92;;;5.60;99.90;;;;;;5079820;28;20036;-74
2022/01/17 07:39:19;;;;;;;14.48;4.68;;;5.60;99.90;;;;;;5099823;28;20059;-73
2022/01/17 07:41:45;;;;;;;18.15;4.53;;;5.60;99.90;;;;;;5079650;28;20040;-74
2022/01/17 07:44:19;;;;;;;14.98;3.97;;;5.70;99.90;;;;;;5092473;28;20037;-74
2022/01/17 07:46:53;;;;;;;12.25;3.80;;;5.90;99.90;;;;;;5078551;28;20059;-72
2022/01/17 07:49:22;;;;;;;15.50;4.28;;;5.80;99.90;;;;;;5083623;28;20516;-73
2022/01/17 07:51:59;;;;;;;9.95;3.40;;;5.80;99.90;;;;;;5092857;28;20064;-72
2022/01/17 07:54:29;;;;;;;12.63;5.47;;;5.90;99.90;;;;;;5086744;28;20079;-74
2022/01/17 07:56:56;;;;;;;16.33;4.78;;;5.90;99.90;;;;;;5115147;28;20071;-72
2022/01/17 07:59:22;;;;;;;11.63;3.88;;;5.90;99.90;;;;;;5078748;28;20037;-73
2022/01/17 08:01:48;;;;;;;22.00;5.85;;;5.80;99.90;;;;;;5079112;28;20066;-77
2022/01/17 08:04:13;;;;;;;9.25;3.72;;;5.90;99.90;;;;;;5083206;28;20047;-72
2022/01/17 08:06:40;;;;;;;15.02;4.85;;;5.90;99.90;;;;;;5078351;28;20036;-75
2022/01/17 08:09:07;;;;;;;13.80;3.92;;;5.90;99.90;;;;;;5078720;28;20047;-74
2022/01/17 08:11:33;;;;;;;12.07;4.05;;;6.00;99.90;;;;;;5080884;28;20048;-72
2022/01/17 08:13:59;;;;;;;12.68;3.42;;;6.00;99.90;;;;;;5083945;28;20442;-75
2022/01/17 08:16:25;;;;;;;19.42;3.95;;;6.00;99.90;;;;;;5068212;28;20052;-75
2022/01/17 08:18:52;;;;;;;13.57;3.53;;;6.00;99.90;;;;;;5090207;28;20051;-73
2022/01/17 08:21:18;;;;;;;13.48;3.70;;;6.00;99.90;;;;;;5095947;28;20459;-74
2022/01/17 08:23:44;;;;;;;13.00;3.42;;;6.00;99.90;;;;;;5094427;28;20052;-74
2022/01/17 08:26:10;;;;;;;12.35;3.30;;;6.00;99.90;;;;;;5076383;28;20290;-74
2022/01/17 08:28:36;;;;;;;21.85;4.82;;;6.00;99.90;;;;;;5092135;28;20070;-73
2022/01/17 08:31:02;;;;;;;11.75;3.85;;;6.00;99.90;;;;;;5088305;28;20055;-72
2022/01/17 08:33:28;;;;;;;22.00;5.18;;;6.00;99.90;;;;;;5103064;28;20040;-74
2022/01/17 08:35:54;;;;;;;12.63;3.35;;;6.10;99.90;;;;;;5090770;28;20036;-73
2022/01/17 08:38:19;;;;;;;13.65;3.40;;;6.10;99.90;;;;;;5076032;28;20094;-72
2022/01/17 08:40:47;;;;;;;14.60;4.30;;;6.10;99.90;;;;;;5084858;28;20410;-73
2022/01/17 08:43:12;;;;;;;14.18;3.83;;;6.10;99.90;;;;;;5082185;28;20049;-75
2022/01/17 08:45:38;;;;;;;11.90;3.28;;;6.10;99.90;;;;;;5083028;28;20395;-73
2022/01/17 08:48:05;;;;;;;16.13;3.90;;;6.10;99.90;;;;;;5078538;28;20040;-70
2022/01/17 08:50:31;;;;;;;15.43;4.40;;;6.10;99.90;;;;;;5077883;28;20060;-70
2022/01/17 08:52:57;;;;;;;20.13;3.78;;;6.30;99.90;;;;;;5085892;28;20524;-70
2022/01/17 08:55:23;;;;;;;18.25;3.25;;;6.20;99.90;;;;;;5101650;28;20035;-73
2022/01/17 08:57:49;;;;;;;18.58;4.65;;;6.20;99.90;;;;;;5080452;28;20059;-71
2022/01/17 09:00:17;;;;;;;16.20;3.78;;;6.20;99.90;;;;;;5078279;28;20045;-71
2022/01/17 09:02:43;;;;;;;15.13;3.75;;;6.20;99.90;;;;;;5077423;28;20040;-70
2022/01/17 09:05:10;;;;;;;14.20;3.08;;;6.20;99.90;;;;;;5078168;28;20044;-71
2022/01/17 09:07:35;;;;;;;20.95;4.55;;;6.30;99.90;;;;;;5076653;28;20039;-71
2022/01/17 09:10:02;;;;;;;24.25;4.50;;;6.30;99.90;;;;;;5078378;28;20052;-72
2022/01/17 09:12:28;;;;;;;20.27;4.22;;;6.30;99.90;;;;;;5076138;28;20059;-73
2022/01/17 09:14:54;;;;;;;17.02;3.35;;;6.30;99.90;;;;;;5078137;28;20040;-72
2022/01/17 09:17:20;;;;;;;10.05;2.88;;;6.30;99.90;;;;;;5077827;28;20036;-72
2022/01/17 09:19:46;;;;;;;11.10;3.08;;;6.30;99.90;;;;;;5084852;28;20039;-71
2022/01/17 09:22:12;;;;;;;29.27;4.70;;;6.40;99.90;;;;;;5098585;28;20070;-72
2022/01/17 09:24:38;;;;;;;17.05;3.63;;;6.40;99.90;;;;;;5097746;28;20048;-72
2022/01/17 09:27:06;;;;;;;24.38;3.70;;;6.40;99.90;;;;;;5097613;28;20056;-71
2022/01/17 09:29:33;;;;;;;21.63;3.88;;;6.40;99.90;;;;;;5097300;28;20051;-70
2022/01/17 09:31:59;;;;;;;22.95;3.63;;;6.60;99.90;;;;;;5104161;28;20048;-72
2022/01/17 09:34:25;;;;;;;10.43;3.00;;;6.50;99.90;;;;;;5117706;28;20074;-72
2022/01/17 09:36:52;;;;;;;16.75;4.00;;;6.50;99.90;;;;;;5120916;28;20126;-72
2022/01/17 09:39:18;;;;;;;15.25;4.68;;;6.50;99.90;;;;;;5121945;28;20048;-72
2022/01/17 09:41:45;;;;;;;27.38;4.80;;;6.50;99.90;;;;;;5121174;28;20048;-72
2022/01/17 09:44:11;;;;;;;13.73;3.60;;;6.60;99.90;;;;;;5122221;28;20103;-71
2022/01/17 09:46:42;;;;;;;24.52;3.92;;;6.70;99.90;;;;;;5119934;28;20075;-71
2022/01/17 09:49:15;;;;;;;27.40;4.18;;;6.60;99.90;;;;;;5122522;28;20044;-73
2022/01/17 09:54:31;;;;;;;18.23;3.17;;;6.70;99.90;;;;;;5119279;28;20055;-72
2022/01/17 09:56:59;;;;;;;20.25;3.65;;;6.80;99.90;;;;;;5101420;28;20059;-73
2022/01/17 09:59:25;;;;;;;17.52;3.90;;;6.90;99.90;;;;;;5100503;28;20044;-72
2022/01/17 10:01:51;;;;;;;23.08;3.83;;;7.00;99.90;;;;;;5101891;28;20043;-73
2022/01/17 10:04:18;;;;;;;21.13;5.13;;;7.20;99.90;;;;;;5101395;28;20040;-73
2022/01/17 10:06:54;;;;;;;21.45;3.85;;;7.30;99.90;;;;;;5098796;28;20060;-72
2022/01/17 10:09:21;;;;;;;20.60;4.75;;;7.30;99.90;;;;;;5101217;28;20063;-71
2022/01/17 10:12:06;;;;;;;18.48;4.28;;;7.30;99.90;;;;;;5100622;28;20044;-72
2022/01/17 10:14:39;;;;;;;19.02;4.30;;;7.40;99.90;;;;;;5099797;28;20052;-73
2022/01/17 10:17:12;;;;;;;18.10;3.72;;;7.50;99.90;;;;;;5098961;28;20123;-73
2022/01/17 10:19:39;;;;;;;18.08;3.92;;;7.60;99.90;;;;;;5100132;28;20048;-72
2022/01/17 10:22:18;;;;;;;19.00;3.70;;;7.60;99.90;;;;;;5101095;28;20127;-72
2022/01/17 10:30:41;;;;;;;23.25;4.57;;;7.90;99.90;;;;;;5089665;28;20056;-75
2022/01/17 10:35:56;;;;;;;23.38;3.55;;;8.10;99.90;;;;;;5120488;28;19924;-75
2022/01/17 10:38:25;;;;;;;15.90;3.83;;;8.30;99.90;;;;;;5120223;28;20043;-75
2022/01/17 10:40:58;;;;;;;27.35;4.13;;;8.40;99.90;;;;;;5120915;27;20047;-75
2022/01/17 10:43:34;;;;;;;15.07;4.05;;;8.80;99.90;;;;;;5120982;28;20060;-74
2022/01/17 10:46:06;;;;;;;19.48;5.57;;;8.90;99.90;;;;;;5119893;28;20047;-75
2022/01/17 10:48:37;;;;;;;20.20;3.78;;;9.00;99.90;;;;;;5119975;28;20044;-72
2022/01/17 10:51:05;;;;;;;21.83;4.60;;;9.00;99.90;;;;;;5118853;28;20043;-74
2022/01/17 10:53:31;;;;;;;22.00;4.47;;;8.90;99.90;;;;;;5120535;28;20633;-72
2022/01/17 10:55:58;;;;;;;25.83;5.97;;;9.00;99.90;;;;;;5104916;28;20051;-72
2022/01/17 10:58:28;;;;;;;22.20;4.43;;;9.20;99.90;;;;;;5098179;28;20059;-76
2022/01/17 11:00:57;;;;;;;16.65;4.28;;;9.30;99.90;;;;;;5100725;28;20099;-73
2022/01/17 11:03:27;;;;;;;17.10;4.22;;;9.40;99.90;;;;;;5099226;28;20384;-71
2022/01/17 11:05:55;;;;;;;23.42;5.35;;;9.40;99.90;;;;;;5098768;28;20051;-75
2022/01/17 11:08:23;;;;;;;16.48;4.70;;;9.30;99.90;;;;;;5099141;28;20043;-71
2022/01/17 11:10:53;;;;;;;19.48;3.58;;;9.20;99.90;;;;;;5099514;28;20469;-72
2022/01/17 11:13:21;;;;;;;22.65;4.45;;;9.10;99.90;;;;;;5099501;28;20051;-73
2022/01/17 11:15:52;;;;;;;21.88;4.53;;;9.00;99.90;;;;;;5099155;28;20051;-76
2022/01/17 11:18:24;;;;;;;19.70;4.18;;;9.10;99.90;;;;;;5100003;28;20044;-71
2022/01/17 11:21:05;;;;;;;19.42;3.92;;;9.00;99.90;;;;;;5097734;28;20104;-73
2022/01/17 11:23:32;;;;;;;26.75;4.28;;;9.00;99.90;;;;;;5099767;28;20048;-75
2022/01/17 11:25:58;;;;;;;25.50;4.95;;;9.00;99.90;;;;;;5098158;28;20114;-72
2022/01/17 11:28:27;;;;;;;22.27;4.10;;;9.00;99.90;;;;;;5098272;28;20048;-75
2022/01/17 11:30:56;;;;;;;22.63;4.18;;;9.00;99.90;;;;;;5099901;28;20449;-76
2022/01/17 11:33:22;;;;;;;17.95;4.05;;;9.00;99.90;;;;;;5115180;28;20130;-74
2022/01/17 11:35:52;;;;;;;28.13;5.10;;;9.00;99.90;;;;;;5119380;28;20039;-78
2022/01/17 11:38:42;;;;;;;24.17;4.60;;;9.00;99.90;;;;;;5119085;28;20040;-72
2022/01/17 11:41:30;;;;;;;27.55;5.07;;;9.00;99.90;;;;;;5118046;28;20097;-75
2022/01/17 11:44:00;;;;;;;24.25;5.65;;;9.00;99.90;;;;;;5120078;28;20099;-75
2022/01/17 11:46:32;;;;;;;18.10;5.13;;;9.00;99.90;;;;;;5119021;28;20394;-72
2022/01/17 11:49:08;;;;;;;34.50;5.80;;;9.10;99.90;;;;;;5120062;28;20375;-75
2022/01/17 11:51:39;;;;;;;26.63;4.45;;;9.10;99.90;;;;;;5119134;28;20055;-75
2022/01/17 11:54:13;;;;;;;24.50;5.65;;;9.10;99.90;;;;;;5119333;28;20050;-74
2022/01/17 11:56:46;;;;;;;17.42;4.38;;;9.00;99.90;;;;;;5078755;28;20048;-76
2022/01/17 11:59:25;;;;;;;26.08;5.00;;;9.10;99.90;;;;;;5077464;28;20510;-76
2022/01/17 12:02:10;;;;;;;20.60;5.32;;;9.00;99.90;;;;;;5079013;28;20438;-74
2022/01/17 12:04:36;;;;;;;17.67;3.70;;;9.00;99.90;;;;;;5077964;28;20056;-75
2022/01/17 12:07:02;;;;;;;20.13;4.63;;;9.00;99.90;;;;;;5075945;28;20104;-76
2022/01/17 12:09:29;;;;;;;26.98;4.32;;;9.00;99.90;;;;;;5080921;28;20070;-81
2022/01/17 12:12:03;;;;;;;17.92;4.05;;;9.00;99.90;;;;;;5093239;28;20542;-77
2022/01/17 12:14:33;;;;;;;19.65;4.55;;;9.00;99.90;;;;;;5096974;28;20091;-80
2022/01/17 12:17:23;;;;;;;22.10;4.78;;;9.10;99.90;;;;;;5096726;28;20297;-80
2022/01/17 12:20:04;;;;;;;21.30;4.40;;;9.20;99.90;;;;;;5097667;28;20052;-78
2022/01/17 12:22:49;;;;;;;19.50;3.42;;;9.20;99.90;;;;;;5099267;28;20062;-76
2022/01/17 12:25:22;;;;;;;18.05;3.92;;;9.10;99.90;;;;;;5098585;28;20475;-75
2022/01/17 12:27:49;;;;;;;25.60;4.25;;;9.10;99.90;;;;;;5096534;28;20048;-73
2022/01/17 12:30:16;;;;;;;26.27;5.30;;;9.00;99.90;;;;;;5097116;28;20052;-75
2022/01/17 12:32:48;;;;;;;23.58;4.90;;;9.00;99.90;;;;;;5101450;28;20043;-73
2022/01/17 12:35:26;;;;;;;22.52;4.15;;;9.10;99.90;;;;;;5118205;28;20094;-78
2022/01/17 12:37:53;;;;;;;21.35;4.25;;;9.10;99.90;;;;;;5118188;28;20073;-75
2022/01/17 12:40:40;;;;;;;17.15;3.72;;;9.20;99.90;;;;;;5118002;28;20503;-75
2022/01/17 12:43:12;;;;;;;22.92;4.13;;;9.20;99.90;;;;;;5119030;28;20122;-76
2022/01/17 12:45:45;;;;;;;22.20;4.70;;;9.30;99.90;;;;;;5118051;28;20047;-77
2022/01/17 12:48:17;;;;;;;19.05;3.50;;;9.40;99.90;;;;;;5118701;28;20100;-75
2022/01/17 12:50:45;;;;;;;20.60;3.83;;;9.40;99.90;;;;;;5118317;28;20043;-75
2022/01/17 12:53:15;;;;;;;16.92;3.60;;;9.40;99.90;;;;;;5117998;28;20104;-75
2022/01/17 12:55:42;;;;;;;14.75;3.67;;;9.40;99.90;;;;;;5118750;28;20051;-75
2022/01/17 12:58:13;;;;;;;15.90;2.97;;;9.40;99.90;;;;;;5118207;28;20063;-74
2022/01/17 13:00:51;;;;;;;20.60;4.90;;;9.30;99.90;;;;;;5119276;28;20459;-75
2022/01/17 13:03:18;;;;;;;15.57;3.88;;;9.30;99.90;;;;;;5117045;28;20134;-74
2022/01/17 13:05:44;;;;;;;14.02;4.28;;;9.30;99.90;;;;;;5119343;28;20502;-74
2022/01/17 13:08:11;;;;;;;18.33;3.90;;;9.20;99.90;;;;;;5118144;28;20131;-75
2022/01/17 13:10:37;;;;;;;17.35;4.18;;;9.10;99.90;;;;;;5119956;28;20054;-75
2022/01/17 13:13:04;;;;;;;14.43;3.13;;;9.10;99.90;;;;;;5122892;28;20083;-72
2022/01/17 13:15:31;;;;;;;16.40;3.05;;;9.10;99.90;;;;;;5121864;28;20095;-80
2022/01/17 13:17:56;;;;;;;19.20;3.78;;;9.10;99.90;;;;;;5121399;28;20103;-82
2022/01/17 13:20:24;;;;;;;16.65;3.30;;;9.10;99.90;;;;;;5122073;28;20039;-74
2022/01/17 13:25:23;;;;;;;15.15;3.38;;;9.10;99.90;;;;;;5122441;28;20074;-76